Time;durP1;ratioP1;P1;durP2;ratioP2;P2;SDS_P1;SDS_P2;PMS_P1;PMS_P2;Temp;Humidity;BMP_temperature;BMP_pressure;BME280_temperature;BME280_humidity;BME280_pressure;Samples;Min_cycle;Max_cycle;Signal;HPM_P1;HPM_P2
2022/07/05 00:03:42;;;;;;;7.78;2.47;;;;;;;;;;21261764;27;19967;-62
2022/07/05 00:13:44;;;;;;;7.65;2.65;;;;;;;;;;21242784;27;20142;-62
2022/07/05 00:23:46;;;;;;;7.72;2.47;;;;;;;;;;21260953;27;20058;-62
2022/07/05 00:33:48;;;;;;;6.18;2.67;;;;;;;;;;21260721;27;20058;-62
2022/07/05 00:43:54;;;;;;;4.85;2.40;;;;;;;;;;21258611;27;20051;-62
2022/07/05 00:53:57;;;;;;;3.67;2.42;;;;;;;;;;21257972;27;20137;-62
2022/07/05 01:03:58;;;;;;;7.18;2.65;;;;;;;;;;21255775;27;20126;-61
2022/07/05 01:14:01;;;;;;;7.65;2.67;;;;;;;;;;21256165;27;20493;-63
2022/07/05 01:24:09;;;;;;;6.53;2.38;;;;;;;;;;21255099;27;20100;-62
2022/07/05 01:34:15;;;;;;;7.55;2.70;;;;;;;;;;21254292;27;20047;-63
2022/07/05 01:44:19;;;;;;;6.18;2.70;;;;;;;;;;21254345;27;20138;-61
2022/07/05 01:54:22;;;;;;;4.78;2.50;;;;;;;;;;21261065;27;20075;-63
2022/07/05 02:04:29;;;;;;;9.50;3.03;;;;;;;;;;21252543;27;20073;-64
2022/07/05 02:14:31;;;;;;;5.80;2.30;;;;;;;;;;21251741;27;20497;-66
2022/07/05 02:24:36;;;;;;;5.50;2.28;;;;;;;;;;21250711;27;20058;-61
2022/07/05 02:34:58;;;;;;;4.82;2.70;;;;;;;;;;21249865;27;20051;-61
2022/07/05 02:45:18;;;;;;;4.93;1.88;;;;;;;;;;21248625;27;20053;-61
2022/07/05 02:55:33;;;;;;;3.35;1.95;;;;;;;;;;21248976;27;20054;-66
2022/07/05 03:05:39;;;;;;;4.30;2.40;;;;;;;;;;21247196;28;20055;-64
2022/07/05 03:15:46;;;;;;;5.28;2.25;;;;;;;;;;21247605;28;20090;-62
2022/07/05 03:25:49;;;;;;;4.65;1.75;;;;;;;;;;21254441;27;20475;-64
2022/07/05 03:35:53;;;;;;;3.70;2.08;;;;;;;;;;21263425;27;20042;-63
2022/07/05 03:45:56;;;;;;;4.15;2.08;;;;;;;;;;21262149;27;20097;-63
2022/07/05 03:55:58;;;;;;;2.60;1.80;;;;;;;;;;21261949;27;20047;-62
2022/07/05 04:06:00;;;;;;;4.00;1.77;;;;;;;;;;21260191;27;20386;-64
2022/07/05 04:16:03;;;;;;;7.97;2.10;;;;;;;;;;21259723;27;20079;-64
2022/07/05 04:26:05;;;;;;;4.95;1.85;;;;;;;;;;21259521;27;20055;-63
2022/07/05 04:36:07;;;;;;;4.53;1.77;;;;;;;;;;21257851;27;20057;-62
2022/07/05 04:46:10;;;;;;;5.22;2.00;;;;;;;;;;21256971;27;20047;-62
2022/07/05 04:56:12;;;;;;;3.55;1.85;;;;;;;;;;21257359;27;20383;-60
2022/07/05 05:06:14;;;;;;;5.85;2.10;;;;;;;;;;21256502;27;20083;-63
2022/07/05 05:16:17;;;;;;;6.85;2.60;;;;;;;;;;21255678;27;20069;-64
2022/07/05 05:26:19;;;;;;;6.30;2.10;;;;;;;;;;21253617;27;20096;-65
2022/07/05 05:36:21;;;;;;;6.53;2.13;;;;;;;;;;21254641;27;20047;-65
2022/07/05 05:46:23;;;;;;;8.73;2.25;;;;;;;;;;21252278;27;20047;-62
2022/07/05 05:56:26;;;;;;;6.00;2.55;;;;;;;;;;21251648;27;20047;-62
2022/07/05 06:06:28;;;;;;;6.18;2.35;;;;;;;;;;21250461;27;20133;-64
2022/07/05 06:16:30;;;;;;;6.85;1.90;;;;;;;;;;21249983;27;20087;-63
2022/07/05 06:26:33;;;;;;;2.65;1.63;;;;;;;;;;21249237;27;20047;-61
2022/07/05 06:36:35;;;;;;;7.18;1.90;;;;;;;;;;21250051;27;20046;-65
2022/07/05 06:46:37;;;;;;;4.72;1.52;;;;;;;;;;21248157;27;20092;-63
2022/07/05 06:56:39;;;;;;;8.27;2.20;;;;;;;;;;21250056;27;20517;-62
2022/07/05 07:06:41;;;;;;;8.05;2.40;;;;;;;;;;21246198;27;20073;-69
2022/07/05 07:16:44;;;;;;;7.82;2.33;;;;;;;;;;21264486;27;20096;-67
2022/07/05 07:27:06;;;;;;;9.18;2.60;;;;;;;;;;21263382;27;20055;-63
2022/07/05 07:37:13;;;;;;;6.80;3.15;;;;;;;;;;21263030;27;20054;-67
2022/07/05 07:47:14;;;;;;;8.53;3.43;;;;;;;;;;21262144;27;20065;-68
2022/07/05 07:57:16;;;;;;;7.32;3.05;;;;;;;;;;21261366;27;20291;-61
2022/07/05 08:07:19;;;;;;;6.95;3.10;;;;;;;;;;21259978;27;20059;-67
2022/07/05 08:17:21;;;;;;;6.88;2.92;;;;;;;;;;21260653;27;20050;-65
2022/07/05 08:27:23;;;;;;;7.07;2.72;;;;;;;;;;21259407;27;20541;-68
2022/07/05 08:37:25;;;;;;;9.75;3.00;;;;;;;;;;21259413;27;20118;-68
2022/07/05 08:47:28;;;;;;;7.93;3.15;;;;;;;;;;21257035;27;20047;-68
2022/07/05 08:57:30;;;;;;;6.45;2.55;;;;;;;;;;21235408;27;20488;-56
2022/07/05 09:07:33;;;;;;;5.63;3.08;;;;;;;;;;21167451;28;20083;-65
2022/07/05 09:17:42;;;;;;;12.00;3.70;;;;;;;;;;21170915;28;20047;-69
2022/07/05 09:28:03;;;;;;;10.63;3.22;;;;;;;;;;21169232;28;20048;-65
2022/07/05 09:38:07;;;;;;;9.82;3.50;;;;;;;;;;21169705;28;20047;-67
2022/07/05 09:48:08;;;;;;;9.02;2.88;;;;;;;;;;21168095;28;20051;-61
2022/07/05 09:58:12;;;;;;;7.78;2.80;;;;;;;;;;21167574;28;20059;-56
2022/07/05 10:08:16;;;;;;;8.55;3.25;;;;;;;;;;21168107;28;20130;-56
2022/07/05 10:18:22;;;;;;;7.13;2.90;;;;;;;;;;21146970;28;20043;-61
2022/07/05 10:28:24;;;;;;;5.03;2.85;;;;;;;;;;21164065;28;20059;-59
2022/07/05 10:38:28;;;;;;;6.13;2.33;;;;;;;;;;21163785;28;20063;-58
2022/07/05 10:48:31;;;;;;;10.43;3.40;;;;;;;;;;21163086;28;20080;-63
2022/07/05 10:58:36;;;;;;;6.55;2.40;;;;;;;;;;21162778;28;20046;-57
2022/07/05 11:08:56;;;;;;;4.68;2.22;;;;;;;;;;21162564;28;20138;-60
2022/07/05 11:19:11;;;;;;;7.18;2.25;;;;;;;;;;21143593;28;20475;-61
2022/07/05 11:29:32;;;;;;;5.93;2.00;;;;;;;;;;21162582;28;20087;-62
2022/07/05 11:39:34;;;;;;;10.68;2.40;;;;;;;;;;21161623;28;20056;-65
2022/07/05 11:49:36;;;;;;;8.13;2.33;;;;;;;;;;21171560;28;20045;-63
2022/07/05 11:59:38;;;;;;;11.63;2.72;;;;;;;;;;21176320;28;20554;-64
2022/07/05 12:20:01;;;;;;;6.68;1.70;;;;;;;;;;21174617;28;20044;-62
2022/07/05 12:30:04;;;;;;;10.95;2.38;;;;;;;;;;21173386;28;20132;-63
2022/07/05 12:40:07;;;;;;;10.98;2.17;;;;;;;;;;21172974;28;20068;-64
2022/07/05 12:50:09;;;;;;;8.75;2.17;;;;;;;;;;21172730;28;20080;-63
2022/07/05 13:00:12;;;;;;;8.50;2.15;;;;;;;;;;21173987;28;20088;-64
2022/07/05 13:10:19;;;;;;;6.78;1.60;;;;;;;;;;21171342;28;20055;-63
2022/07/05 13:20:22;;;;;;;4.55;1.45;;;;;;;;;;21170777;28;20132;-63
2022/07/05 13:30:25;;;;;;;8.83;1.70;;;;;;;;;;21169222;27;20558;-57
2022/07/05 13:40:27;;;;;;;8.63;2.10;;;;;;;;;;21193487;27;20043;-61
2022/07/05 13:50:33;;;;;;;7.70;1.52;;;;;;;;;;21207963;27;20483;-58
2022/07/05 14:00:35;;;;;;;4.05;1.33;;;;;;;;;;21164594;28;20096;-59
2022/07/05 14:10:37;;;;;;;10.00;1.50;;;;;;;;;;21157695;28;20059;-54
2022/07/05 14:20:39;;;;;;;4.85;1.33;;;;;;;;;;21162511;28;20043;-57
2022/07/05 14:30:45;;;;;;;6.55;0.95;;;;;;;;;;21162999;28;20134;-58
2022/07/05 14:40:47;;;;;;;2.10;1.13;;;;;;;;;;21163673;28;20051;-60
2022/07/05 14:50:49;;;;;;;3.90;1.17;;;;;;;;;;21160337;27;20483;-61
2022/07/05 15:00:51;;;;;;;6.00;1.42;;;;;;;;;;21206837;28;20039;-56
2022/07/05 15:10:53;;;;;;;6.13;1.35;;;;;;;;;;21245400;28;20047;-61
2022/07/05 15:20:55;;;;;;;5.28;1.08;;;;;;;;;;21233780;27;20039;-67
2022/07/05 15:30:57;;;;;;;4.40;1.20;;;;;;;;;;21260968;27;20065;-62
2022/07/05 15:40:59;;;;;;;4.75;1.15;;;;;;;;;;21261352;27;20043;-59
2022/07/05 15:51:01;;;;;;;5.53;2.38;;;;;;;;;;21260526;27;20499;-58
2022/07/05 16:01:04;;;;;;;3.70;1.63;;;;;;;;;;21259130;27;20085;-56
2022/07/05 16:11:06;;;;;;;4.22;1.10;;;;;;;;;;21259830;27;20046;-58
2022/07/05 16:21:09;;;;;;;5.25;1.23;;;;;;;;;;21258019;27;20039;-63
2022/07/05 16:31:13;;;;;;;3.50;1.40;;;;;;;;;;21237754;27;20058;-59
2022/07/05 16:41:16;;;;;;;4.13;1.23;;;;;;;;;;21239037;27;20044;-57
2022/07/05 16:51:20;;;;;;;4.82;1.65;;;;;;;;;;21255355;27;20399;-55
2022/07/05 17:01:22;;;;;;;6.93;2.55;;;;;;;;;;21254543;27;20051;-67
2022/07/05 17:11:25;;;;;;;4.35;1.17;;;;;;;;;;21254252;27;20051;-58
2022/07/05 17:21:27;;;;;;;4.32;1.23;;;;;;;;;;21235351;27;20054;-67
2022/07/05 17:31:31;;;;;;;5.37;1.63;;;;;;;;;;21253726;27;20047;-68
2022/07/05 17:41:33;;;;;;;7.90;2.03;;;;;;;;;;21255605;27;20091;-71
2022/07/05 17:51:35;;;;;;;4.55;1.40;;;;;;;;;;21237433;27;20077;-71
2022/07/05 18:01:37;;;;;;;6.20;1.38;;;;;;;;;;21251642;27;20058;-59
2022/07/05 18:11:39;;;;;;;5.78;1.70;;;;;;;;;;21251748;27;20053;-62
2022/07/05 18:21:41;;;;;;;3.92;1.08;;;;;;;;;;21250215;27;20085;-60
2022/07/05 18:31:43;;;;;;;4.78;1.50;;;;;;;;;;21249653;27;20069;-59
2022/07/05 18:41:46;;;;;;;5.82;2.45;;;;;;;;;;21249986;27;20122;-63
2022/07/05 18:51:48;;;;;;;3.35;1.02;;;;;;;;;;21248105;27;20269;-64
2022/07/05 19:01:50;;;;;;;5.15;1.60;;;;;;;;;;21248614;27;20428;-59
2022/07/05 19:22:13;;;;;;;6.15;1.73;;;;;;;;;;21251072;28;20067;-60
2022/07/05 19:32:15;;;;;;;4.93;2.22;;;;;;;;;;21251563;28;20047;-64
2022/07/05 19:42:17;;;;;;;7.68;1.80;;;;;;;;;;21172227;28;20044;-60
2022/07/05 19:52:19;;;;;;;9.88;2.22;;;;;;;;;;21159857;28;20043;-66
2022/07/05 20:02:21;;;;;;;11.88;2.50;;;;;;;;;;21157331;28;20139;-71
2022/07/05 20:12:23;;;;;;;6.85;3.45;;;;;;;;;;21172587;28;20468;-64
2022/07/05 20:22:25;;;;;;;6.57;3.10;;;;;;;;;;21172323;28;20043;-68
2022/07/05 20:32:27;;;;;;;4.30;1.90;;;;;;;;;;21173632;28;20063;-63
2022/07/05 20:42:29;;;;;;;2.63;1.70;;;;;;;;;;21173221;28;20054;-62
2022/07/05 20:52:32;;;;;;;10.57;4.10;;;;;;;;;;21172052;28;20134;-62
2022/07/05 21:02:34;;;;;;;3.35;1.55;;;;;;;;;;21171128;28;20051;-63
2022/07/05 21:12:36;;;;;;;3.72;1.83;;;;;;;;;;21170581;28;20048;-62
2022/07/05 21:22:38;;;;;;;4.10;2.08;;;;;;;;;;21167965;28;20052;-62
2022/07/05 21:32:41;;;;;;;3.85;2.25;;;;;;;;;;21151144;28;20055;-63
2022/07/05 21:42:44;;;;;;;4.97;1.98;;;;;;;;;;21168014;28;20039;-63
2022/07/05 21:52:46;;;;;;;5.70;2.58;;;;;;;;;;21167566;28;20097;-62
2022/07/05 22:13:22;;;;;;;6.93;3.03;;;;;;;;;;20823987;28;20053;-62
2022/07/05 22:23:24;;;;;;;6.88;3.08;;;;;;;;;;20823496;28;20129;-64
2022/07/05 22:33:26;;;;;;;6.88;2.55;;;;;;;;;;20822476;28;20045;-62
2022/07/05 22:43:28;;;;;;;8.07;3.88;;;;;;;;;;20936223;28;20039;-62
2022/07/05 22:53:30;;;;;;;5.90;2.28;;;;;;;;;;21163416;28;20055;-63
2022/07/05 23:03:32;;;;;;;10.20;2.85;;;;;;;;;;21162907;28;20047;-64
2022/07/05 23:13:34;;;;;;;20.65;9.60;;;;;;;;;;21144167;28;20105;-61
2022/07/05 23:23:36;;;;;;;5.05;2.42;;;;;;;;;;21161860;28;20043;-62
2022/07/05 23:33:38;;;;;;;9.07;2.33;;;;;;;;;;21161605;28;20063;-61
2022/07/05 23:43:40;;;;;;;9.98;2.10;;;;;;;;;;21171530;28;20670;-62
2022/07/05 23:53:43;;;;;;;8.13;3.78;;;;;;;;;;21178771;28;20051;-60
